sensor_id;sensor_type;location;lat;lon;timestamp;P1;durP1;ratioP1;P2;durP2;ratioP2
10410;SDS011;5251;52.112;8.606;2023-07-08T00:01:10;2.40;;;1.90;;
10410;SDS011;5251;52.112;8.606;2023-07-08T00:03:38;2.80;;;2.25;;
10410;SDS011;5251;52.112;8.606;2023-07-08T00:06:04;3.47;;;2.15;;
10410;SDS011;5251;52.112;8.606;2023-07-08T00:08:29;2.13;;;1.92;;
10410;SDS011;5251;52.112;8.606;2023-07-08T00:10:55;2.50;;;2.10;;
10410;SDS011;5251;52.112;8.606;2023-07-08T00:13:21;1.98;;;1.88;;
10410;SDS011;5251;52.112;8.606;2023-07-08T00:15:46;3.97;;;1.90;;
10410;SDS011;5251;52.112;8.606;2023-07-08T00:18:13;3.33;;;2.10;;
10410;SDS011;5251;52.112;8.606;2023-07-08T00:20:47;3.10;;;2.22;;
10410;SDS011;5251;52.112;8.606;2023-07-08T00:23:14;2.38;;;1.75;;
10410;SDS011;5251;52.112;8.606;2023-07-08T00:25:40;2.38;;;2.17;;
10410;SDS011;5251;52.112;8.606;2023-07-08T00:28:09;2.22;;;1.92;;
10410;SDS011;5251;52.112;8.606;2023-07-08T00:30:43;1.95;;;1.80;;
10410;SDS011;5251;52.112;8.606;2023-07-08T00:33:09;2.38;;;2.10;;
10410;SDS011;5251;52.112;8.606;2023-07-08T00:35:35;2.38;;;2.03;;
10410;SDS011;5251;52.112;8.606;2023-07-08T00:38:14;4.93;;;2.05;;
10410;SDS011;5251;52.112;8.606;2023-07-08T00:40:51;2.92;;;2.20;;
10410;SDS011;5251;52.112;8.606;2023-07-08T00:43:36;2.17;;;1.80;;
10410;SDS011;5251;52.112;8.606;2023-07-08T00:48:43;2.67;;;2.20;;
10410;SDS011;5251;52.112;8.606;2023-07-08T00:51:10;2.38;;;2.15;;
10410;SDS011;5251;52.112;8.606;2023-07-08T00:53:37;2.53;;;1.90;;
10410;SDS011;5251;52.112;8.606;2023-07-08T00:56:05;4.97;;;2.20;;
10410;SDS011;5251;52.112;8.606;2023-07-08T01:01:22;2.30;;;2.10;;
10410;SDS011;5251;52.112;8.606;2023-07-08T01:03:54;2.78;;;2.00;;
10410;SDS011;5251;52.112;8.606;2023-07-08T01:06:26;2.58;;;2.17;;
10410;SDS011;5251;52.112;8.606;2023-07-08T01:08:56;2.15;;;1.88;;
10410;SDS011;5251;52.112;8.606;2023-07-08T01:11:24;2.70;;;2.10;;
10410;SDS011;5251;52.112;8.606;2023-07-08T01:13:50;2.00;;;1.88;;
10410;SDS011;5251;52.112;8.606;2023-07-08T01:16:16;4.75;;;2.60;;
10410;SDS011;5251;52.112;8.606;2023-07-08T01:18:42;4.70;;;2.05;;
10410;SDS011;5251;52.112;8.606;2023-07-08T01:21:28;1.80;;;1.70;;
10410;SDS011;5251;52.112;8.606;2023-07-08T01:23:59;2.10;;;1.88;;
10410;SDS011;5251;52.112;8.606;2023-07-08T01:26:27;2.03;;;1.83;;
10410;SDS011;5251;52.112;8.606;2023-07-08T01:28:59;2.60;;;2.20;;
10410;SDS011;5251;52.112;8.606;2023-07-08T01:31:26;3.45;;;1.90;;
10410;SDS011;5251;52.112;8.606;2023-07-08T01:33:52;2.38;;;2.05;;
10410;SDS011;5251;52.112;8.606;2023-07-08T01:36:18;2.72;;;2.42;;
10410;SDS011;5251;52.112;8.606;2023-07-08T01:38:44;2.40;;;2.08;;
10410;SDS011;5251;52.112;8.606;2023-07-08T01:41:12;2.78;;;1.92;;
10410;SDS011;5251;52.112;8.606;2023-07-08T01:43:38;2.67;;;2.15;;
10410;SDS011;5251;52.112;8.606;2023-07-08T01:46:04;2.05;;;1.85;;
10410;SDS011;5251;52.112;8.606;2023-07-08T01:48:39;2.45;;;2.25;;
10410;SDS011;5251;52.112;8.606;2023-07-08T01:51:10;3.95;;;2.30;;
10410;SDS011;5251;52.112;8.606;2023-07-08T01:53:37;2.55;;;2.08;;
10410;SDS011;5251;52.112;8.606;2023-07-08T01:56:05;3.35;;;2.15;;
10410;SDS011;5251;52.112;8.606;2023-07-08T01:58:32;2.22;;;1.90;;
10410;SDS011;5251;52.112;8.606;2023-07-08T02:00:58;2.78;;;2.10;;
10410;SDS011;5251;52.112;8.606;2023-07-08T02:03:24;3.45;;;2.30;;
10410;SDS011;5251;52.112;8.606;2023-07-08T02:05:50;2.05;;;1.88;;
10410;SDS011;5251;52.112;8.606;2023-07-08T02:08:16;2.30;;;2.10;;
10410;SDS011;5251;52.112;8.606;2023-07-08T02:10:42;2.03;;;1.90;;
10410;SDS011;5251;52.112;8.606;2023-07-08T02:13:09;2.25;;;2.05;;
10410;SDS011;5251;52.112;8.606;2023-07-08T02:15:34;3.13;;;2.08;;
10410;SDS011;5251;52.112;8.606;2023-07-08T02:18:00;2.90;;;2.10;;
10410;SDS011;5251;52.112;8.606;2023-07-08T02:20:26;3.42;;;2.08;;
10410;SDS011;5251;52.112;8.606;2023-07-08T02:22:51;2.45;;;2.13;;
10410;SDS011;5251;52.112;8.606;2023-07-08T02:25:17;2.30;;;2.10;;
10410;SDS011;5251;52.112;8.606;2023-07-08T02:27:42;2.30;;;2.10;;
10410;SDS011;5251;52.112;8.606;2023-07-08T02:30:08;3.47;;;2.10;;
10410;SDS011;5251;52.112;8.606;2023-07-08T02:32:34;2.00;;;1.73;;
10410;SDS011;5251;52.112;8.606;2023-07-08T02:35:04;3.28;;;2.10;;
10410;SDS011;5251;52.112;8.606;2023-07-08T02:37:30;2.40;;;2.20;;
10410;SDS011;5251;52.112;8.606;2023-07-08T02:39:57;3.88;;;2.20;;
10410;SDS011;5251;52.112;8.606;2023-07-08T02:42:22;2.30;;;2.10;;
10410;SDS011;5251;52.112;8.606;2023-07-08T02:44:48;2.78;;;2.20;;
10410;SDS011;5251;52.112;8.606;2023-07-08T02:47:13;3.42;;;2.20;;
10410;SDS011;5251;52.112;8.606;2023-07-08T02:49:39;2.38;;;2.10;;
10410;SDS011;5251;52.112;8.606;2023-07-08T02:52:05;2.08;;;1.88;;
10410;SDS011;5251;52.112;8.606;2023-07-08T02:54:30;3.08;;;2.47;;
10410;SDS011;5251;52.112;8.606;2023-07-08T02:56:56;2.40;;;2.20;;
10410;SDS011;5251;52.112;8.606;2023-07-08T02:59:22;3.13;;;2.50;;
10410;SDS011;5251;52.112;8.606;2023-07-08T03:01:47;2.55;;;2.20;;
10410;SDS011;5251;52.112;8.606;2023-07-08T03:04:15;3.08;;;2.00;;
10410;SDS011;5251;52.112;8.606;2023-07-08T03:06:41;3.05;;;2.20;;
10410;SDS011;5251;52.112;8.606;2023-07-08T03:09:08;2.17;;;1.98;;
10410;SDS011;5251;52.112;8.606;2023-07-08T03:11:35;2.88;;;1.83;;
10410;SDS011;5251;52.112;8.606;2023-07-08T03:14:01;3.30;;;2.17;;
10410;SDS011;5251;52.112;8.606;2023-07-08T03:16:27;2.33;;;2.13;;
10410;SDS011;5251;52.112;8.606;2023-07-08T03:18:52;2.35;;;2.15;;
10410;SDS011;5251;52.112;8.606;2023-07-08T03:21:18;2.38;;;2.17;;
10410;SDS011;5251;52.112;8.606;2023-07-08T03:23:44;2.60;;;2.40;;
10410;SDS011;5251;52.112;8.606;2023-07-08T03:26:20;2.40;;;2.20;;
10410;SDS011;5251;52.112;8.606;2023-07-08T03:28:47;2.20;;;2.00;;
10410;SDS011;5251;52.112;8.606;2023-07-08T03:31:13;3.45;;;2.30;;
10410;SDS011;5251;52.112;8.606;2023-07-08T03:33:39;2.97;;;1.80;;
10410;SDS011;5251;52.112;8.606;2023-07-08T03:36:07;2.28;;;1.90;;
10410;SDS011;5251;52.112;8.606;2023-07-08T03:38:37;3.13;;;2.20;;
10410;SDS011;5251;52.112;8.606;2023-07-08T03:41:03;2.38;;;2.17;;
10410;SDS011;5251;52.112;8.606;2023-07-08T03:43:29;2.65;;;1.90;;
10410;SDS011;5251;52.112;8.606;2023-07-08T03:45:55;3.70;;;2.30;;
10410;SDS011;5251;52.112;8.606;2023-07-08T03:48:21;2.28;;;2.08;;
10410;SDS011;5251;52.112;8.606;2023-07-08T03:50:46;3.55;;;1.98;;
10410;SDS011;5251;52.112;8.606;2023-07-08T03:53:12;2.42;;;2.05;;
10410;SDS011;5251;52.112;8.606;2023-07-08T03:55:38;2.22;;;2.03;;
10410;SDS011;5251;52.112;8.606;2023-07-08T03:58:04;2.35;;;2.13;;
10410;SDS011;5251;52.112;8.606;2023-07-08T04:00:30;3.28;;;2.22;;
10410;SDS011;5251;52.112;8.606;2023-07-08T04:02:55;2.35;;;2.15;;
10410;SDS011;5251;52.112;8.606;2023-07-08T04:05:22;2.78;;;1.92;;
10410;SDS011;5251;52.112;8.606;2023-07-08T04:07:48;2.47;;;2.28;;
10410;SDS011;5251;52.112;8.606;2023-07-08T04:10:14;2.20;;;2.00;;
10410;SDS011;5251;52.112;8.606;2023-07-08T04:12:41;2.90;;;2.10;;
10410;SDS011;5251;52.112;8.606;2023-07-08T04:15:07;2.70;;;2.28;;
10410;SDS011;5251;52.112;8.606;2023-07-08T04:17:48;2.40;;;2.00;;
10410;SDS011;5251;52.112;8.606;2023-07-08T04:20:15;2.47;;;2.03;;
10410;SDS011;5251;52.112;8.606;2023-07-08T04:22:43;2.42;;;2.00;;
10410;SDS011;5251;52.112;8.606;2023-07-08T04:25:10;2.85;;;2.35;;
10410;SDS011;5251;52.112;8.606;2023-07-08T04:27:37;3.00;;;2.15;;
10410;SDS011;5251;52.112;8.606;2023-07-08T04:30:03;3.30;;;2.15;;
10410;SDS011;5251;52.112;8.606;2023-07-08T04:32:30;2.28;;;2.08;;
10410;SDS011;5251;52.112;8.606;2023-07-08T04:34:56;2.47;;;2.03;;
10410;SDS011;5251;52.112;8.606;2023-07-08T04:37:21;2.47;;;2.00;;
10410;SDS011;5251;52.112;8.606;2023-07-08T04:39:47;2.90;;;2.20;;
10410;SDS011;5251;52.112;8.606;2023-07-08T04:42:13;2.63;;;2.35;;
10410;SDS011;5251;52.112;8.606;2023-07-08T04:44:40;2.53;;;2.30;;
10410;SDS011;5251;52.112;8.606;2023-07-08T04:47:06;2.95;;;2.13;;
10410;SDS011;5251;52.112;8.606;2023-07-08T04:49:34;3.55;;;2.08;;
10410;SDS011;5251;52.112;8.606;2023-07-08T04:52:00;3.17;;;2.30;;
10410;SDS011;5251;52.112;8.606;2023-07-08T04:54:27;2.83;;;2.15;;
10410;SDS011;5251;52.112;8.606;2023-07-08T04:56:53;2.78;;;2.30;;
10410;SDS011;5251;52.112;8.606;2023-07-08T04:59:21;2.30;;;2.10;;
10410;SDS011;5251;52.112;8.606;2023-07-08T05:01:48;2.78;;;2.17;;
10410;SDS011;5251;52.112;8.606;2023-07-08T05:04:15;2.50;;;2.20;;
10410;SDS011;5251;52.112;8.606;2023-07-08T05:06:42;3.53;;;2.40;;
10410;SDS011;5251;52.112;8.606;2023-07-08T05:09:09;4.03;;;2.53;;
10410;SDS011;5251;52.112;8.606;2023-07-08T05:11:35;2.55;;;2.35;;
10410;SDS011;5251;52.112;8.606;2023-07-08T05:14:01;2.85;;;2.45;;
10410;SDS011;5251;52.112;8.606;2023-07-08T05:16:28;2.75;;;2.53;;
10410;SDS011;5251;52.112;8.606;2023-07-08T05:18:53;2.63;;;2.30;;
10410;SDS011;5251;52.112;8.606;2023-07-08T05:21:19;3.88;;;2.40;;
10410;SDS011;5251;52.112;8.606;2023-07-08T05:23:46;6.57;;;2.30;;
10410;SDS011;5251;52.112;8.606;2023-07-08T05:26:14;3.20;;;2.53;;
10410;SDS011;5251;52.112;8.606;2023-07-08T05:28:40;2.72;;;2.15;;
10410;SDS011;5251;52.112;8.606;2023-07-08T05:31:06;2.33;;;2.13;;
10410;SDS011;5251;52.112;8.606;2023-07-08T05:33:32;3.15;;;2.08;;
10410;SDS011;5251;52.112;8.606;2023-07-08T05:35:57;2.97;;;2.53;;
10410;SDS011;5251;52.112;8.606;2023-07-08T05:38:24;2.63;;;2.30;;
10410;SDS011;5251;52.112;8.606;2023-07-08T05:40:50;3.60;;;2.20;;
10410;SDS011;5251;52.112;8.606;2023-07-08T05:43:18;2.75;;;2.22;;
10410;SDS011;5251;52.112;8.606;2023-07-08T05:45:44;2.47;;;2.08;;
10410;SDS011;5251;52.112;8.606;2023-07-08T05:48:10;4.18;;;2.13;;
10410;SDS011;5251;52.112;8.606;2023-07-08T05:50:36;2.78;;;2.10;;
10410;SDS011;5251;52.112;8.606;2023-07-08T05:53:02;2.10;;;1.90;;
10410;SDS011;5251;52.112;8.606;2023-07-08T05:55:27;3.03;;;1.90;;
10410;SDS011;5251;52.112;8.606;2023-07-08T05:57:53;2.30;;;2.00;;
10410;SDS011;5251;52.112;8.606;2023-07-08T06:00:19;1.88;;;1.70;;
10410;SDS011;5251;52.112;8.606;2023-07-08T06:02:44;2.95;;;2.30;;
10410;SDS011;5251;52.112;8.606;2023-07-08T06:05:10;3.20;;;1.90;;
10410;SDS011;5251;52.112;8.606;2023-07-08T06:07:36;1.95;;;1.70;;
10410;SDS011;5251;52.112;8.606;2023-07-08T06:10:01;2.17;;;1.98;;
10410;SDS011;5251;52.112;8.606;2023-07-08T06:12:27;3.35;;;2.10;;
10410;SDS011;5251;52.112;8.606;2023-07-08T06:14:53;2.30;;;2.00;;
10410;SDS011;5251;52.112;8.606;2023-07-08T06:17:18;2.30;;;2.10;;
10410;SDS011;5251;52.112;8.606;2023-07-08T06:19:44;3.35;;;2.08;;
10410;SDS011;5251;52.112;8.606;2023-07-08T06:22:09;2.20;;;1.98;;
10410;SDS011;5251;52.112;8.606;2023-07-08T06:24:35;3.25;;;2.10;;
10410;SDS011;5251;52.112;8.606;2023-07-08T06:27:01;5.53;;;2.28;;
10410;SDS011;5251;52.112;8.606;2023-07-08T06:29:26;3.08;;;2.20;;
10410;SDS011;5251;52.112;8.606;2023-07-08T06:31:52;2.45;;;1.92;;
10410;SDS011;5251;52.112;8.606;2023-07-08T06:34:18;2.70;;;2.15;;
10410;SDS011;5251;52.112;8.606;2023-07-08T06:36:47;4.25;;;2.25;;
10410;SDS011;5251;52.112;8.606;2023-07-08T06:39:13;2.42;;;1.90;;
10410;SDS011;5251;52.112;8.606;2023-07-08T06:41:38;2.88;;;2.10;;
10410;SDS011;5251;52.112;8.606;2023-07-08T06:44:04;2.75;;;2.05;;
10410;SDS011;5251;52.112;8.606;2023-07-08T06:46:29;2.88;;;2.00;;
10410;SDS011;5251;52.112;8.606;2023-07-08T06:48:55;2.30;;;2.10;;
10410;SDS011;5251;52.112;8.606;2023-07-08T06:51:21;2.63;;;1.92;;
10410;SDS011;5251;52.112;8.606;2023-07-08T06:53:46;4.63;;;2.30;;
10410;SDS011;5251;52.112;8.606;2023-07-08T06:56:12;4.32;;;2.13;;
10410;SDS011;5251;52.112;8.606;2023-07-08T06:58:38;3.15;;;1.90;;
10410;SDS011;5251;52.112;8.606;2023-07-08T07:01:03;2.63;;;1.95;;
10410;SDS011;5251;52.112;8.606;2023-07-08T07:03:29;2.33;;;2.10;;
10410;SDS011;5251;52.112;8.606;2023-07-08T07:05:55;2.33;;;2.13;;
10410;SDS011;5251;52.112;8.606;2023-07-08T07:08:20;3.17;;;2.30;;
10410;SDS011;5251;52.112;8.606;2023-07-08T07:10:46;2.33;;;2.13;;
10410;SDS011;5251;52.112;8.606;2023-07-08T07:13:11;3.05;;;2.25;;
10410;SDS011;5251;52.112;8.606;2023-07-08T07:15:37;2.75;;;2.22;;
10410;SDS011;5251;52.112;8.606;2023-07-08T07:18:03;3.03;;;2.45;;
10410;SDS011;5251;52.112;8.606;2023-07-08T07:20:29;2.30;;;2.10;;
10410;SDS011;5251;52.112;8.606;2023-07-08T07:22:55;3.70;;;2.05;;
10410;SDS011;5251;52.112;8.606;2023-07-08T07:25:21;3.42;;;2.47;;
10410;SDS011;5251;52.112;8.606;2023-07-08T07:27:47;2.22;;;1.90;;
10410;SDS011;5251;52.112;8.606;2023-07-08T07:30:12;2.28;;;2.08;;
10410;SDS011;5251;52.112;8.606;2023-07-08T07:32:40;4.18;;;2.38;;
10410;SDS011;5251;52.112;8.606;2023-07-08T07:35:06;2.35;;;2.15;;
10410;SDS011;5251;52.112;8.606;2023-07-08T07:37:32;2.30;;;2.10;;
10410;SDS011;5251;52.112;8.606;2023-07-08T07:39:58;6.88;;;2.65;;
10410;SDS011;5251;52.112;8.606;2023-07-08T07:42:26;2.42;;;2.17;;
10410;SDS011;5251;52.112;8.606;2023-07-08T07:44:52;3.72;;;1.90;;
10410;SDS011;5251;52.112;8.606;2023-07-08T07:47:18;3.10;;;2.20;;
10410;SDS011;5251;52.112;8.606;2023-07-08T07:49:43;2.42;;;2.22;;
10410;SDS011;5251;52.112;8.606;2023-07-08T07:52:09;2.30;;;2.03;;
10410;SDS011;5251;52.112;8.606;2023-07-08T07:54:36;2.15;;;1.95;;
10410;SDS011;5251;52.112;8.606;2023-07-08T07:57:02;2.67;;;2.13;;
10410;SDS011;5251;52.112;8.606;2023-07-08T07:59:28;2.40;;;2.20;;
10410;SDS011;5251;52.112;8.606;2023-07-08T08:01:54;2.70;;;2.50;;
10410;SDS011;5251;52.112;8.606;2023-07-08T08:04:19;2.58;;;2.10;;
10410;SDS011;5251;52.112;8.606;2023-07-08T08:06:45;3.03;;;2.00;;
10410;SDS011;5251;52.112;8.606;2023-07-08T08:09:12;3.75;;;2.30;;
10410;SDS011;5251;52.112;8.606;2023-07-08T08:11:38;3.47;;;2.15;;
10410;SDS011;5251;52.112;8.606;2023-07-08T08:14:03;3.53;;;2.15;;
10410;SDS011;5251;52.112;8.606;2023-07-08T08:16:29;2.47;;;2.20;;
10410;SDS011;5251;52.112;8.606;2023-07-08T08:18:55;3.78;;;2.30;;
10410;SDS011;5251;52.112;8.606;2023-07-08T08:21:21;3.15;;;2.33;;
10410;SDS011;5251;52.112;8.606;2023-07-08T08:23:46;3.10;;;2.10;;
10410;SDS011;5251;52.112;8.606;2023-07-08T08:26:12;2.30;;;2.03;;
10410;SDS011;5251;52.112;8.606;2023-07-08T08:28:39;3.10;;;2.28;;
10410;SDS011;5251;52.112;8.606;2023-07-08T08:31:05;3.70;;;2.22;;
10410;SDS011;5251;52.112;8.606;2023-07-08T08:33:30;2.28;;;2.08;;
10410;SDS011;5251;52.112;8.606;2023-07-08T08:35:56;2.10;;;1.90;;
10410;SDS011;5251;52.112;8.606;2023-07-08T08:38:21;2.88;;;2.15;;
10410;SDS011;5251;52.112;8.606;2023-07-08T08:40:47;3.88;;;2.45;;
10410;SDS011;5251;52.112;8.606;2023-07-08T08:43:14;2.55;;;2.25;;
10410;SDS011;5251;52.112;8.606;2023-07-08T08:46:06;3.03;;;2.10;;
10410;SDS011;5251;52.112;8.606;2023-07-08T08:48:32;5.63;;;2.53;;
10410;SDS011;5251;52.112;8.606;2023-07-08T08:51:06;3.53;;;2.60;;
10410;SDS011;5251;52.112;8.606;2023-07-08T08:53:37;2.95;;;2.22;;
10410;SDS011;5251;52.112;8.606;2023-07-08T08:58:48;3.72;;;2.58;;
10410;SDS011;5251;52.112;8.606;2023-07-08T09:01:23;3.15;;;2.30;;
10410;SDS011;5251;52.112;8.606;2023-07-08T09:03:51;2.28;;;2.03;;
10410;SDS011;5251;52.112;8.606;2023-07-08T09:06:22;3.00;;;2.47;;
10410;SDS011;5251;52.112;8.606;2023-07-08T09:08:49;2.60;;;2.28;;
10410;SDS011;5251;52.112;8.606;2023-07-08T09:11:22;2.50;;;2.30;;
10410;SDS011;5251;52.112;8.606;2023-07-08T09:13:55;4.97;;;2.35;;
10410;SDS011;5251;52.112;8.606;2023-07-08T09:19:13;2.50;;;2.30;;
10410;SDS011;5251;52.112;8.606;2023-07-08T09:27:15;2.30;;;2.10;;
10410;SDS011;5251;52.112;8.606;2023-07-08T09:29:41;3.30;;;2.47;;
10410;SDS011;5251;52.112;8.606;2023-07-08T09:32:17;6.25;;;2.42;;
10410;SDS011;5251;52.112;8.606;2023-07-08T09:34:51;3.85;;;2.30;;
10410;SDS011;5251;52.112;8.606;2023-07-08T09:37:27;2.50;;;2.30;;
10410;SDS011;5251;52.112;8.606;2023-07-08T09:39:58;2.90;;;2.60;;
10410;SDS011;5251;52.112;8.606;2023-07-08T09:42:32;2.83;;;2.50;;
10410;SDS011;5251;52.112;8.606;2023-07-08T09:45:08;4.45;;;2.50;;
10410;SDS011;5251;52.112;8.606;2023-07-08T09:47:37;2.90;;;2.20;;
10410;SDS011;5251;52.112;8.606;2023-07-08T09:50:26;2.60;;;2.40;;
10410;SDS011;5251;52.112;8.606;2023-07-08T09:52:53;5.35;;;2.40;;
10410;SDS011;5251;52.112;8.606;2023-07-08T09:55:22;4.28;;;2.58;;
10410;SDS011;5251;52.112;8.606;2023-07-08T09:57:49;4.30;;;2.60;;
10410;SDS011;5251;52.112;8.606;2023-07-08T10:00:18;2.42;;;2.22;;
10410;SDS011;5251;52.112;8.606;2023-07-08T10:02:55;2.65;;;2.45;;
10410;SDS011;5251;52.112;8.606;2023-07-08T10:05:23;2.60;;;2.30;;
10410;SDS011;5251;52.112;8.606;2023-07-08T10:07:55;3.35;;;2.40;;
10410;SDS011;5251;52.112;8.606;2023-07-08T10:10:31;4.07;;;2.60;;
10410;SDS011;5251;52.112;8.606;2023-07-08T10:13:01;2.60;;;2.40;;
10410;SDS011;5251;52.112;8.606;2023-07-08T10:15:31;2.97;;;2.53;;
10410;SDS011;5251;52.112;8.606;2023-07-08T10:18:02;3.30;;;2.30;;
10410;SDS011;5251;52.112;8.606;2023-07-08T10:20:29;3.70;;;3.08;;
10410;SDS011;5251;52.112;8.606;2023-07-08T10:23:19;3.15;;;2.53;;
10410;SDS011;5251;52.112;8.606;2023-07-08T10:26:00;2.85;;;2.40;;
10410;SDS011;5251;52.112;8.606;2023-07-08T10:29:12;2.70;;;2.50;;
10410;SDS011;5251;52.112;8.606;2023-07-08T10:31:52;3.97;;;2.88;;
10410;SDS011;5251;52.112;8.606;2023-07-08T10:34:27;3.80;;;2.65;;
10410;SDS011;5251;52.112;8.606;2023-07-08T10:47:45;5.60;;;2.47;;
10410;SDS011;5251;52.112;8.606;2023-07-08T10:56:19;3.08;;;2.38;;
10410;SDS011;5251;52.112;8.606;2023-07-08T11:07:05;3.20;;;2.90;;
10410;SDS011;5251;52.112;8.606;2023-07-08T11:09:53;4.75;;;2.90;;
10410;SDS011;5251;52.112;8.606;2023-07-08T11:14:55;3.90;;;2.50;;
10410;SDS011;5251;52.112;8.606;2023-07-08T11:17:41;3.58;;;3.08;;
10410;SDS011;5251;52.112;8.606;2023-07-08T11:20:21;3.13;;;2.83;;
10410;SDS011;5251;52.112;8.606;2023-07-08T11:22:57;3.17;;;2.88;;
10410;SDS011;5251;52.112;8.606;2023-07-08T11:25:33;3.83;;;2.72;;
10410;SDS011;5251;52.112;8.606;2023-07-08T11:28:01;3.42;;;2.90;;
10410;SDS011;5251;52.112;8.606;2023-07-08T11:30:30;3.53;;;2.92;;
10410;SDS011;5251;52.112;8.606;2023-07-08T11:33:01;3.22;;;2.92;;
10410;SDS011;5251;52.112;8.606;2023-07-08T11:35:33;3.20;;;2.90;;
10410;SDS011;5251;52.112;8.606;2023-07-08T11:38:12;3.38;;;3.08;;
10410;SDS011;5251;52.112;8.606;2023-07-08T11:40:49;3.38;;;2.75;;
10410;SDS011;5251;52.112;8.606;2023-07-08T11:43:15;3.30;;;2.65;;
10410;SDS011;5251;52.112;8.606;2023-07-08T11:45:42;3.67;;;3.10;;
10410;SDS011;5251;52.112;8.606;2023-07-08T11:48:27;3.20;;;2.80;;
10410;SDS011;5251;52.112;8.606;2023-07-08T11:50:56;4.10;;;3.00;;
10410;SDS011;5251;52.112;8.606;2023-07-08T11:55:58;3.03;;;2.75;;
10410;SDS011;5251;52.112;8.606;2023-07-08T11:58:28;3.30;;;3.00;;
10410;SDS011;5251;52.112;8.606;2023-07-08T12:04:34;3.30;;;3.00;;
10410;SDS011;5251;52.112;8.606;2023-07-08T12:10:17;3.20;;;2.90;;
10410;SDS011;5251;52.112;8.606;2023-07-08T12:12:56;3.58;;;2.80;;
10410;SDS011;5251;52.112;8.606;2023-07-08T12:15:25;3.08;;;2.78;;
10410;SDS011;5251;52.112;8.606;2023-07-08T12:18:01;3.65;;;3.00;;
10410;SDS011;5251;52.112;8.606;2023-07-08T12:20:33;3.53;;;2.90;;
10410;SDS011;5251;52.112;8.606;2023-07-08T12:23:01;3.20;;;2.90;;
10410;SDS011;5251;52.112;8.606;2023-07-08T12:25:30;3.15;;;2.75;;
10410;SDS011;5251;52.112;8.606;2023-07-08T12:27:57;3.58;;;3.28;;
10410;SDS011;5251;52.112;8.606;2023-07-08T12:30:23;6.15;;;3.20;;
10410;SDS011;5251;52.112;8.606;2023-07-08T12:32:52;3.10;;;2.90;;
10410;SDS011;5251;52.112;8.606;2023-07-08T12:37:51;3.05;;;2.75;;
10410;SDS011;5251;52.112;8.606;2023-07-08T12:40:20;5.78;;;3.30;;
10410;SDS011;5251;52.112;8.606;2023-07-08T12:42:47;2.90;;;2.67;;
10410;SDS011;5251;52.112;8.606;2023-07-08T12:45:14;2.92;;;2.70;;
10410;SDS011;5251;52.112;8.606;2023-07-08T12:47:42;3.35;;;2.85;;
10410;SDS011;5251;52.112;8.606;2023-07-08T12:50:09;3.22;;;2.88;;
10410;SDS011;5251;52.112;8.606;2023-07-08T12:52:35;3.20;;;2.90;;
10410;SDS011;5251;52.112;8.606;2023-07-08T12:55:01;3.35;;;2.90;;
10410;SDS011;5251;52.112;8.606;2023-07-08T12:57:27;3.10;;;2.80;;
10410;SDS011;5251;52.112;8.606;2023-07-08T12:59:52;5.03;;;3.30;;
10410;SDS011;5251;52.112;8.606;2023-07-08T13:02:19;3.78;;;3.38;;
10410;SDS011;5251;52.112;8.606;2023-07-08T13:04:47;3.72;;;3.00;;
10410;SDS011;5251;52.112;8.606;2023-07-08T13:07:21;3.30;;;3.00;;
10410;SDS011;5251;52.112;8.606;2023-07-08T13:09:53;5.18;;;3.22;;
10410;SDS011;5251;52.112;8.606;2023-07-08T13:12:19;3.58;;;3.28;;
10410;SDS011;5251;52.112;8.606;2023-07-08T13:14:50;4.75;;;3.17;;
10410;SDS011;5251;52.112;8.606;2023-07-08T13:17:20;3.42;;;3.13;;
10410;SDS011;5251;52.112;8.606;2023-07-08T13:19:46;3.70;;;3.25;;
10410;SDS011;5251;52.112;8.606;2023-07-08T13:22:17;3.80;;;3.30;;
10410;SDS011;5251;52.112;8.606;2023-07-08T13:24:44;3.85;;;3.20;;
10410;SDS011;5251;52.112;8.606;2023-07-08T13:27:20;4.65;;;3.08;;
10410;SDS011;5251;52.112;8.606;2023-07-08T13:29:47;3.92;;;3.20;;
10410;SDS011;5251;52.112;8.606;2023-07-08T13:32:13;4.78;;;3.45;;
10410;SDS011;5251;52.112;8.606;2023-07-08T13:34:40;3.30;;;3.00;;
10410;SDS011;5251;52.112;8.606;2023-07-08T13:37:09;3.85;;;3.20;;
10410;SDS011;5251;52.112;8.606;2023-07-08T13:39:38;3.03;;;2.83;;
10410;SDS011;5251;52.112;8.606;2023-07-08T13:42:08;4.25;;;3.30;;
10410;SDS011;5251;52.112;8.606;2023-07-08T13:44:34;3.53;;;3.22;;
10410;SDS011;5251;52.112;8.606;2023-07-08T13:50:11;3.50;;;3.20;;
10410;SDS011;5251;52.112;8.606;2023-07-08T13:52:47;5.35;;;3.60;;
10410;SDS011;5251;52.112;8.606;2023-07-08T13:55:19;3.63;;;3.30;;
10410;SDS011;5251;52.112;8.606;2023-07-08T13:57:46;3.50;;;3.20;;
10410;SDS011;5251;52.112;8.606;2023-07-08T14:00:22;3.60;;;3.30;;
10410;SDS011;5251;52.112;8.606;2023-07-08T14:02:47;3.45;;;3.15;;
10410;SDS011;5251;52.112;8.606;2023-07-08T14:05:13;3.90;;;3.45;;
10410;SDS011;5251;52.112;8.606;2023-07-08T14:07:40;3.33;;;2.97;;
10410;SDS011;5251;52.112;8.606;2023-07-08T14:10:10;3.75;;;3.22;;
10410;SDS011;5251;52.112;8.606;2023-07-08T14:12:37;3.90;;;3.38;;
10410;SDS011;5251;52.112;8.606;2023-07-08T14:15:03;3.40;;;2.97;;
10410;SDS011;5251;52.112;8.606;2023-07-08T14:17:29;3.30;;;3.00;;
10410;SDS011;5251;52.112;8.606;2023-07-08T14:19:55;3.47;;;3.17;;
10410;SDS011;5251;52.112;8.606;2023-07-08T14:22:28;3.60;;;3.30;;
10410;SDS011;5251;52.112;8.606;2023-07-08T14:24:55;3.45;;;3.15;;
10410;SDS011;5251;52.112;8.606;2023-07-08T14:27:23;3.97;;;3.42;;
10410;SDS011;5251;52.112;8.606;2023-07-08T14:29:49;4.63;;;3.67;;
10410;SDS011;5251;52.112;8.606;2023-07-08T14:34:48;3.55;;;3.15;;
10410;SDS011;5251;52.112;8.606;2023-07-08T14:37:19;4.95;;;3.28;;
10410;SDS011;5251;52.112;8.606;2023-07-08T14:39:45;3.92;;;3.53;;
10410;SDS011;5251;52.112;8.606;2023-07-08T14:42:11;3.45;;;3.08;;
10410;SDS011;5251;52.112;8.606;2023-07-08T14:44:39;3.55;;;3.25;;
10410;SDS011;5251;52.112;8.606;2023-07-08T14:47:11;3.55;;;3.25;;
10410;SDS011;5251;52.112;8.606;2023-07-08T14:49:38;5.00;;;3.53;;
10410;SDS011;5251;52.112;8.606;2023-07-08T14:52:04;3.47;;;3.17;;
10410;SDS011;5251;52.112;8.606;2023-07-08T14:54:31;4.60;;;3.40;;
10410;SDS011;5251;52.112;8.606;2023-07-08T14:56:56;3.92;;;3.20;;
10410;SDS011;5251;52.112;8.606;2023-07-08T14:59:23;3.42;;;3.13;;
10410;SDS011;5251;52.112;8.606;2023-07-08T15:01:51;4.43;;;3.38;;
10410;SDS011;5251;52.112;8.606;2023-07-08T15:04:18;4.30;;;3.03;;
10410;SDS011;5251;52.112;8.606;2023-07-08T15:06:44;3.75;;;3.30;;
10410;SDS011;5251;52.112;8.606;2023-07-08T15:09:11;3.80;;;3.42;;
10410;SDS011;5251;52.112;8.606;2023-07-08T15:11:37;3.67;;;3.38;;
10410;SDS011;5251;52.112;8.606;2023-07-08T15:14:05;3.80;;;3.40;;
10410;SDS011;5251;52.112;8.606;2023-07-08T15:16:44;3.97;;;3.47;;
10410;SDS011;5251;52.112;8.606;2023-07-08T15:19:10;3.92;;;3.53;;
10410;SDS011;5251;52.112;8.606;2023-07-08T15:21:38;3.78;;;3.42;;
10410;SDS011;5251;52.112;8.606;2023-07-08T15:24:06;3.40;;;3.10;;
10410;SDS011;5251;52.112;8.606;2023-07-08T15:26:33;4.55;;;3.40;;
10410;SDS011;5251;52.112;8.606;2023-07-08T15:28:59;3.83;;;3.42;;
10410;SDS011;5251;52.112;8.606;2023-07-08T15:31:25;4.00;;;3.60;;
10410;SDS011;5251;52.112;8.606;2023-07-08T15:33:53;3.78;;;3.42;;
10410;SDS011;5251;52.112;8.606;2023-07-08T15:36:19;4.20;;;3.40;;
10410;SDS011;5251;52.112;8.606;2023-07-08T15:38:45;3.83;;;3.53;;
10410;SDS011;5251;52.112;8.606;2023-07-08T15:41:24;3.78;;;3.10;;
10410;SDS011;5251;52.112;8.606;2023-07-08T15:43:54;4.22;;;3.33;;
10410;SDS011;5251;52.112;8.606;2023-07-08T15:46:21;5.55;;;3.45;;
10410;SDS011;5251;52.112;8.606;2023-07-08T15:48:47;3.95;;;3.55;;
10410;SDS011;5251;52.112;8.606;2023-07-08T15:51:13;3.92;;;3.47;;
10410;SDS011;5251;52.112;8.606;2023-07-08T15:53:40;4.13;;;3.50;;
10410;SDS011;5251;52.112;8.606;2023-07-08T15:56:12;5.53;;;3.20;;
10410;SDS011;5251;52.112;8.606;2023-07-08T15:58:42;3.90;;;3.50;;
10410;SDS011;5251;52.112;8.606;2023-07-08T16:01:13;3.85;;;3.50;;
10410;SDS011;5251;52.112;8.606;2023-07-08T16:03:43;4.03;;;3.55;;
10410;SDS011;5251;52.112;8.606;2023-07-08T16:06:09;8.65;;;3.78;;
10410;SDS011;5251;52.112;8.606;2023-07-08T16:08:34;3.70;;;3.40;;